sensor_id;sensor_type;location;lat;lon;timestamp;pressure;altitude;pressure_sealevel;temperature;humidity
56894;BME280;43392;50.078;13.704;2023-09-19T00:02:02;96468.81;;;17.92;82.03
56894;BME280;43392;50.078;13.704;2023-09-19T00:04:31;96470.50;;;17.96;82.22
56894;BME280;43392;50.078;13.704;2023-09-19T00:06:57;96458.31;;;18.02;81.59
56894;BME280;43392;50.078;13.704;2023-09-19T00:09:24;96456.97;;;18.08;81.41
56894;BME280;43392;50.078;13.704;2023-09-19T00:11:52;96457.22;;;18.15;81.15
56894;BME280;43392;50.078;13.704;2023-09-19T00:14:19;96453.84;;;18.18;80.63
56894;BME280;43392;50.078;13.704;2023-09-19T00:16:49;96455.41;;;18.19;80.78
56894;BME280;43392;50.078;13.704;2023-09-19T00:19:17;96439.63;;;18.21;80.39
56894;BME280;43392;50.078;13.704;2023-09-19T00:21:44;96443.09;;;18.22;80.34
56894;BME280;43392;50.078;13.704;2023-09-19T00:24:11;96446.59;;;18.22;79.92
56894;BME280;43392;50.078;13.704;2023-09-19T00:26:38;96447.75;;;18.21;80.17
56894;BME280;43392;50.078;13.704;2023-09-19T00:29:05;96450.47;;;18.21;79.62
56894;BME280;43392;50.078;13.704;2023-09-19T00:31:33;96459.84;;;18.24;79.80
56894;BME280;43392;50.078;13.704;2023-09-19T00:34:03;96455.19;;;18.24;79.45
56894;BME280;43392;50.078;13.704;2023-09-19T00:36:32;96440.50;;;18.25;79.28
56894;BME280;43392;50.078;13.704;2023-09-19T00:39:00;96450.56;;;18.25;79.20
56894;BME280;43392;50.078;13.704;2023-09-19T00:41:26;96451.38;;;18.25;79.00
56894;BME280;43392;50.078;13.704;2023-09-19T00:43:55;96453.72;;;18.27;79.00
56894;BME280;43392;50.078;13.704;2023-09-19T00:46:22;96452.94;;;18.26;78.95
56894;BME280;43392;50.078;13.704;2023-09-19T00:48:48;96461.09;;;18.26;78.81
56894;BME280;43392;50.078;13.704;2023-09-19T00:51:15;96448.31;;;18.27;78.97
56894;BME280;43392;50.078;13.704;2023-09-19T00:53:46;96445.94;;;18.25;78.70
56894;BME280;43392;50.078;13.704;2023-09-19T00:56:13;96449.00;;;18.24;78.71
56894;BME280;43392;50.078;13.704;2023-09-19T00:58:40;96453.19;;;18.21;78.69
56894;BME280;43392;50.078;13.704;2023-09-19T01:01:07;96465.94;;;18.21;78.94
56894;BME280;43392;50.078;13.704;2023-09-19T01:03:33;96452.69;;;18.19;79.07
56894;BME280;43392;50.078;13.704;2023-09-19T01:06:01;96457.34;;;18.19;79.24
56894;BME280;43392;50.078;13.704;2023-09-19T01:08:28;96467.72;;;18.17;79.34
56894;BME280;43392;50.078;13.704;2023-09-19T01:11:00;96460.59;;;18.12;79.00
56894;BME280;43392;50.078;13.704;2023-09-19T01:13:37;96456.97;;;18.08;79.30
56894;BME280;43392;50.078;13.704;2023-09-19T01:16:11;96456.53;;;18.06;79.59
56894;BME280;43392;50.078;13.704;2023-09-19T01:18:49;96465.78;;;18.05;79.47
56894;BME280;43392;50.078;13.704;2023-09-19T01:21:23;96456.06;;;18.04;79.77
56894;BME280;43392;50.078;13.704;2023-09-19T01:24:10;96461.03;;;18.02;79.54
56894;BME280;43392;50.078;13.704;2023-09-19T01:27:03;96474.94;;;18.01;79.85
56894;BME280;43392;50.078;13.704;2023-09-19T01:29:37;96478.44;;;18.01;79.82
56894;BME280;43392;50.078;13.704;2023-09-19T01:32:08;96467.13;;;17.99;80.01
56894;BME280;43392;50.078;13.704;2023-09-19T01:34:46;96456.94;;;17.96;80.29
56894;BME280;43392;50.078;13.704;2023-09-19T01:37:16;96462.38;;;17.96;80.02
56894;BME280;43392;50.078;13.704;2023-09-19T01:39:46;96460.47;;;17.97;80.03
56894;BME280;43392;50.078;13.704;2023-09-19T01:42:20;96451.53;;;17.96;80.30
56894;BME280;43392;50.078;13.704;2023-09-19T01:44:54;96464.28;;;17.96;80.45
56894;BME280;43392;50.078;13.704;2023-09-19T01:47:28;96459.88;;;17.91;80.37
56894;BME280;43392;50.078;13.704;2023-09-19T01:50:04;96445.84;;;17.89;80.59
56894;BME280;43392;50.078;13.704;2023-09-19T01:52:36;96450.47;;;17.88;80.88
56894;BME280;43392;50.078;13.704;2023-09-19T01:55:09;96462.34;;;17.84;80.90
56894;BME280;43392;50.078;13.704;2023-09-19T01:57:42;96458.22;;;17.78;80.82
56894;BME280;43392;50.078;13.704;2023-09-19T02:00:14;96465.91;;;17.76;80.96
56894;BME280;43392;50.078;13.704;2023-09-19T02:02:46;96466.69;;;17.76;81.12
56894;BME280;43392;50.078;13.704;2023-09-19T02:05:22;96467.50;;;17.77;81.12
56894;BME280;43392;50.078;13.704;2023-09-19T02:07:49;96465.19;;;17.67;81.38
56894;BME280;43392;50.078;13.704;2023-09-19T02:10:15;96474.88;;;17.56;81.79
56894;BME280;43392;50.078;13.704;2023-09-19T02:12:42;96461.47;;;17.51;81.96
56894;BME280;43392;50.078;13.704;2023-09-19T02:15:09;96463.88;;;17.52;82.53
56894;BME280;43392;50.078;13.704;2023-09-19T02:17:36;96461.44;;;17.59;81.96
56894;BME280;43392;50.078;13.704;2023-09-19T02:20:05;96468.56;;;17.64;82.21
56894;BME280;43392;50.078;13.704;2023-09-19T02:22:36;96450.03;;;17.66;81.60
56894;BME280;43392;50.078;13.704;2023-09-19T02:25:04;96456.41;;;17.70;81.69
56894;BME280;43392;50.078;13.704;2023-09-19T02:27:32;96466.59;;;17.73;81.32
56894;BME280;43392;50.078;13.704;2023-09-19T02:29:59;96456.50;;;17.73;81.26
56894;BME280;43392;50.078;13.704;2023-09-19T02:32:29;96453.50;;;17.75;81.51
56894;BME280;43392;50.078;13.704;2023-09-19T02:34:56;96462.06;;;17.77;81.32
56894;BME280;43392;50.078;13.704;2023-09-19T02:37:25;96457.56;;;17.81;81.15
56894;BME280;43392;50.078;13.704;2023-09-19T02:39:51;96452.94;;;17.81;81.41
56894;BME280;43392;50.078;13.704;2023-09-19T02:42:18;96459.16;;;17.82;81.35
56894;BME280;43392;50.078;13.704;2023-09-19T02:44:44;96455.31;;;17.83;81.27
56894;BME280;43392;50.078;13.704;2023-09-19T02:47:12;96456.91;;;17.84;81.08
56894;BME280;43392;50.078;13.704;2023-09-19T02:49:40;96458.00;;;17.83;81.08
56894;BME280;43392;50.078;13.704;2023-09-19T02:52:07;96455.44;;;17.86;80.76
56894;BME280;43392;50.078;13.704;2023-09-19T02:54:35;96454.78;;;17.89;80.55
56894;BME280;43392;50.078;13.704;2023-09-19T02:57:02;96451.72;;;17.91;80.48
56894;BME280;43392;50.078;13.704;2023-09-19T02:59:28;96458.75;;;17.92;80.51
56894;BME280;43392;50.078;13.704;2023-09-19T03:01:56;96457.16;;;17.91;80.44
56894;BME280;43392;50.078;13.704;2023-09-19T03:04:23;96457.16;;;17.91;80.50
56894;BME280;43392;50.078;13.704;2023-09-19T03:06:51;96459.88;;;17.91;80.26
56894;BME280;43392;50.078;13.704;2023-09-19T03:09:21;96456.09;;;17.83;80.98
56894;BME280;43392;50.078;13.704;2023-09-19T03:11:50;96460.53;;;17.88;80.73
56894;BME280;43392;50.078;13.704;2023-09-19T03:14:16;96454.78;;;17.89;80.52
56894;BME280;43392;50.078;13.704;2023-09-19T03:16:45;96451.72;;;17.91;80.69
56894;BME280;43392;50.078;13.704;2023-09-19T03:19:11;96455.56;;;17.90;80.67
56894;BME280;43392;50.078;13.704;2023-09-19T03:21:40;96453.63;;;17.90;80.74
56894;BME280;43392;50.078;13.704;2023-09-19T03:24:07;96467.53;;;17.89;80.97
56894;BME280;43392;50.078;13.704;2023-09-19T03:26:33;96467.88;;;17.87;80.89
56894;BME280;43392;50.078;13.704;2023-09-19T03:29:04;96472.53;;;17.87;80.84
56894;BME280;43392;50.078;13.704;2023-09-19T03:31:33;96469.81;;;17.87;80.62
56894;BME280;43392;50.078;13.704;2023-09-19T03:34:02;96463.59;;;17.86;80.90
56894;BME280;43392;50.078;13.704;2023-09-19T03:36:29;96463.94;;;17.85;80.54
56894;BME280;43392;50.078;13.704;2023-09-19T03:38:55;96465.38;;;17.82;80.83
56894;BME280;43392;50.078;13.704;2023-09-19T03:41:22;96468.41;;;17.81;81.10
56894;BME280;43392;50.078;13.704;2023-09-19T03:43:48;96479.25;;;17.81;81.22
56894;BME280;43392;50.078;13.704;2023-09-19T03:46:16;96483.22;;;17.83;80.69
56894;BME280;43392;50.078;13.704;2023-09-19T03:48:43;96475.44;;;17.82;80.83
56894;BME280;43392;50.078;13.704;2023-09-19T03:51:09;96484.03;;;17.84;81.01
56894;BME280;43392;50.078;13.704;2023-09-19T03:53:36;96486.28;;;17.82;81.09
56894;BME280;43392;50.078;13.704;2023-09-19T03:56:03;96482.63;;;17.78;80.76
56894;BME280;43392;50.078;13.704;2023-09-19T03:58:30;96484.56;;;17.77;81.11
56894;BME280;43392;50.078;13.704;2023-09-19T04:00:57;96479.16;;;17.77;81.10
56894;BME280;43392;50.078;13.704;2023-09-19T04:03:26;96487.28;;;17.77;80.89
56894;BME280;43392;50.078;13.704;2023-09-19T04:06:00;96488.75;;;17.75;81.21
56894;BME280;43392;50.078;13.704;2023-09-19T04:08:27;96477.28;;;17.69;81.02
56894;BME280;43392;50.078;13.704;2023-09-19T04:10:54;96486.09;;;17.66;81.32
56894;BME280;43392;50.078;13.704;2023-09-19T04:13:22;96482.25;;;17.67;81.32
56894;BME280;43392;50.078;13.704;2023-09-19T04:15:48;96485.28;;;17.66;81.19
56894;BME280;43392;50.078;13.704;2023-09-19T04:18:15;96503.50;;;17.65;81.27
56894;BME280;43392;50.078;13.704;2023-09-19T04:20:47;96499.53;;;17.63;81.60
56894;BME280;43392;50.078;13.704;2023-09-19T04:23:14;96500.97;;;17.60;81.19
56894;BME280;43392;50.078;13.704;2023-09-19T04:25:41;96498.59;;;17.59;81.69
56894;BME280;43392;50.078;13.704;2023-09-19T04:28:07;96505.94;;;17.58;81.78
56894;BME280;43392;50.078;13.704;2023-09-19T04:30:35;96514.84;;;17.59;81.42
56894;BME280;43392;50.078;13.704;2023-09-19T04:33:02;96519.50;;;17.58;81.67
56894;BME280;43392;50.078;13.704;2023-09-19T04:35:29;96514.28;;;17.53;81.76
56894;BME280;43392;50.078;13.704;2023-09-19T04:37:58;96506.91;;;17.54;81.73
56894;BME280;43392;50.078;13.704;2023-09-19T04:40:25;96523.19;;;17.54;81.55
56894;BME280;43392;50.078;13.704;2023-09-19T04:42:55;96521.63;;;17.53;81.46
56894;BME280;43392;50.078;13.704;2023-09-19T04:45:22;96524.59;;;17.51;81.61
56894;BME280;43392;50.078;13.704;2023-09-19T04:47:49;96535.78;;;17.50;81.69
56894;BME280;43392;50.078;13.704;2023-09-19T04:50:15;96535.31;;;17.48;81.70
56894;BME280;43392;50.078;13.704;2023-09-19T04:52:43;96534.22;;;17.49;81.56
56894;BME280;43392;50.078;13.704;2023-09-19T04:55:12;96537.38;;;17.51;81.55
56894;BME280;43392;50.078;13.704;2023-09-19T04:57:41;96537.38;;;17.51;81.02
56894;BME280;43392;50.078;13.704;2023-09-19T05:00:09;96550.63;;;17.52;81.23
56894;BME280;43392;50.078;13.704;2023-09-19T05:02:38;96547.13;;;17.52;81.17
56894;BME280;43392;50.078;13.704;2023-09-19T05:05:06;96547.13;;;17.52;81.08
56894;BME280;43392;50.078;13.704;2023-09-19T05:07:33;96548.72;;;17.53;81.38
56894;BME280;43392;50.078;13.704;2023-09-19T05:10:00;96557.97;;;17.52;81.15
56894;BME280;43392;50.078;13.704;2023-09-19T05:12:29;96557.97;;;17.52;81.32
56894;BME280;43392;50.078;13.704;2023-09-19T05:14:56;96562.56;;;17.51;81.36
56894;BME280;43392;50.078;13.704;2023-09-19T05:19:58;96563.19;;;17.57;81.00
56894;BME280;43392;50.078;13.704;2023-09-19T05:22:27;96567.16;;;17.59;80.66
56894;BME280;43392;50.078;13.704;2023-09-19T05:24:54;96565.25;;;17.60;80.81
56894;BME280;43392;50.078;13.704;2023-09-19T05:27:20;96565.38;;;17.63;80.77
56894;BME280;43392;50.078;13.704;2023-09-19T05:29:48;96571.28;;;17.65;80.33
56894;BME280;43392;50.078;13.704;2023-09-19T05:32:16;96574.91;;;17.69;80.33
56894;BME280;43392;50.078;13.704;2023-09-19T05:34:43;96575.06;;;17.73;80.38
56894;BME280;43392;50.078;13.704;2023-09-19T05:37:09;96576.63;;;17.74;80.15
56894;BME280;43392;50.078;13.704;2023-09-19T05:39:36;96579.34;;;17.74;79.98
56894;BME280;43392;50.078;13.704;2023-09-19T05:42:03;96580.50;;;17.73;80.21
56894;BME280;43392;50.078;13.704;2023-09-19T05:44:30;96583.19;;;17.73;80.33
56894;BME280;43392;50.078;13.704;2023-09-19T05:46:59;96587.03;;;17.72;80.01
56894;BME280;43392;50.078;13.704;2023-09-19T05:49:26;96595.81;;;17.69;80.33
56894;BME280;43392;50.078;13.704;2023-09-19T05:51:53;96595.00;;;17.68;80.53
56894;BME280;43392;50.078;13.704;2023-09-19T05:54:21;96591.72;;;17.63;80.48
56894;BME280;43392;50.078;13.704;2023-09-19T05:56:48;96593.63;;;17.62;80.73
56894;BME280;43392;50.078;13.704;2023-09-19T05:59:18;96606.38;;;17.62;80.49
56894;BME280;43392;50.078;13.704;2023-09-19T06:01:45;96605.28;;;17.63;80.48
56894;BME280;43392;50.078;13.704;2023-09-19T06:04:13;96596.81;;;17.64;80.51
56894;BME280;43392;50.078;13.704;2023-09-19T06:06:40;96599.19;;;17.66;80.46
56894;BME280;43392;50.078;13.704;2023-09-19T06:09:06;96603.81;;;17.65;80.68
56894;BME280;43392;50.078;13.704;2023-09-19T06:11:34;96598.06;;;17.67;80.55
56894;BME280;43392;50.078;13.704;2023-09-19T06:14:00;96611.28;;;17.68;80.38
56894;BME280;43392;50.078;13.704;2023-09-19T06:16:27;96606.81;;;17.72;80.23
56894;BME280;43392;50.078;13.704;2023-09-19T06:18:54;96606.81;;;17.72;80.08
56894;BME280;43392;50.078;13.704;2023-09-19T06:21:22;96606.81;;;17.72;80.09
56894;BME280;43392;50.078;13.704;2023-09-19T06:23:49;96615.75;;;17.73;79.99
56894;BME280;43392;50.078;13.704;2023-09-19T06:26:16;96624.00;;;17.76;79.94
56894;BME280;43392;50.078;13.704;2023-09-19T06:28:42;96624.81;;;17.77;79.82
56894;BME280;43392;50.078;13.704;2023-09-19T06:31:09;96629.59;;;17.80;79.75
56894;BME280;43392;50.078;13.704;2023-09-19T06:33:36;96625.06;;;17.84;79.49
56894;BME280;43392;50.078;13.704;2023-09-19T06:36:04;96623.97;;;17.85;79.69
56894;BME280;43392;50.078;13.704;2023-09-19T06:38:32;96635.28;;;17.87;79.45
56894;BME280;43392;50.078;13.704;2023-09-19T06:41:01;96630.16;;;17.85;79.75
56894;BME280;43392;50.078;13.704;2023-09-19T06:43:30;96642.28;;;17.88;79.63
56894;BME280;43392;50.078;13.704;2023-09-19T06:45:59;96649.75;;;17.91;79.60
56894;BME280;43392;50.078;13.704;2023-09-19T06:48:26;96653.28;;;17.92;79.79
56894;BME280;43392;50.078;13.704;2023-09-19T06:50:54;96660.25;;;17.92;79.76
56894;BME280;43392;50.078;13.704;2023-09-19T06:53:21;96660.25;;;17.92;79.83
56894;BME280;43392;50.078;13.704;2023-09-19T06:55:50;96657.25;;;17.94;79.82
56894;BME280;43392;50.078;13.704;2023-09-19T06:58:17;96666.66;;;17.97;79.75
56894;BME280;43392;50.078;13.704;2023-09-19T07:00:44;96665.66;;;18.01;79.50
56894;BME280;43392;50.078;13.704;2023-09-19T07:03:11;96657.16;;;18.03;79.61
56894;BME280;43392;50.078;13.704;2023-09-19T07:05:41;96662.75;;;18.06;79.56
56894;BME280;43392;50.078;13.704;2023-09-19T07:08:09;96656.84;;;18.04;79.34
56894;BME280;43392;50.078;13.704;2023-09-19T07:10:37;96656.06;;;18.04;79.56
56894;BME280;43392;50.078;13.704;2023-09-19T07:13:07;96661.75;;;18.11;79.35
56894;BME280;43392;50.078;13.704;2023-09-19T07:15:37;96661.41;;;18.12;79.43
56894;BME280;43392;50.078;13.704;2023-09-19T07:18:05;96668.44;;;18.13;79.20
56894;BME280;43392;50.078;13.704;2023-09-19T07:20:34;96664.28;;;18.16;79.04
56894;BME280;43392;50.078;13.704;2023-09-19T07:23:01;96680.03;;;18.22;79.27
56894;BME280;43392;50.078;13.704;2023-09-19T07:25:28;96675.50;;;18.26;78.83
56894;BME280;43392;50.078;13.704;2023-09-19T07:27:55;96684.13;;;18.28;78.93
56894;BME280;43392;50.078;13.704;2023-09-19T07:30:23;96685.06;;;18.32;79.10
56894;BME280;43392;50.078;13.704;2023-09-19T07:32:51;96687.22;;;18.39;78.58
56894;BME280;43392;50.078;13.704;2023-09-19T07:35:18;96684.81;;;18.46;78.74
56894;BME280;43392;50.078;13.704;2023-09-19T07:37:45;96686.31;;;18.55;78.75
56894;BME280;43392;50.078;13.704;2023-09-19T07:40:14;96687.50;;;18.67;78.38
56894;BME280;43392;50.078;13.704;2023-09-19T07:42:41;96684.91;;;18.70;78.29
56894;BME280;43392;50.078;13.704;2023-09-19T07:45:10;96692.09;;;18.75;77.64
56894;BME280;43392;50.078;13.704;2023-09-19T07:47:43;96695.72;;;18.79;77.63
56894;BME280;43392;50.078;13.704;2023-09-19T07:50:10;96693.34;;;18.89;77.33
56894;BME280;43392;50.078;13.704;2023-09-19T07:52:37;96697.13;;;18.97;76.83
56894;BME280;43392;50.078;13.704;2023-09-19T07:55:05;96695.66;;;18.99;76.55
56894;BME280;43392;50.078;13.704;2023-09-19T07:57:34;96700.78;;;19.01;76.24
56894;BME280;43392;50.078;13.704;2023-09-19T08:00:01;96712.09;;;19.03;76.23
56894;BME280;43392;50.078;13.704;2023-09-19T08:02:30;96706.66;;;19.03;76.05
56894;BME280;43392;50.078;13.704;2023-09-19T08:04:58;96712.31;;;18.98;76.06
56894;BME280;43392;50.078;13.704;2023-09-19T08:07:25;96723.22;;;19.10;75.88
56894;BME280;43392;50.078;13.704;2023-09-19T08:09:54;96718.47;;;19.19;75.54
56894;BME280;43392;50.078;13.704;2023-09-19T08:12:20;96724.03;;;19.23;75.04
56894;BME280;43392;50.078;13.704;2023-09-19T08:14:49;96716.78;;;19.14;75.06
56894;BME280;43392;50.078;13.704;2023-09-19T08:17:16;96724.81;;;19.11;75.37
56894;BME280;43392;50.078;13.704;2023-09-19T08:19:45;96718.91;;;19.09;75.40
56894;BME280;43392;50.078;13.704;2023-09-19T08:22:13;96720.50;;;19.10;75.05
56894;BME280;43392;50.078;13.704;2023-09-19T08:24:42;96721.75;;;19.12;74.31
56894;BME280;43392;50.078;13.704;2023-09-19T08:27:09;96723.63;;;19.33;73.17
56894;BME280;43392;50.078;13.704;2023-09-19T08:29:37;96725.34;;;19.37;72.17
56894;BME280;43392;50.078;13.704;2023-09-19T08:32:04;96723.78;;;19.48;72.51
56894;BME280;43392;50.078;13.704;2023-09-19T08:34:31;96719.94;;;19.61;72.01
56894;BME280;43392;50.078;13.704;2023-09-19T08:36:59;96725.84;;;19.75;71.18
56894;BME280;43392;50.078;13.704;2023-09-19T08:39:27;96729.38;;;19.88;70.28
56894;BME280;43392;50.078;13.704;2023-09-19T08:41:59;96729.69;;;19.99;70.38
56894;BME280;43392;50.078;13.704;2023-09-19T08:44:26;96737.75;;;20.07;70.21
56894;BME280;43392;50.078;13.704;2023-09-19T08:46:55;96738.31;;;20.13;69.32
56894;BME280;43392;50.078;13.704;2023-09-19T08:49:27;96737.53;;;20.00;68.54
56894;BME280;43392;50.078;13.704;2023-09-19T08:52:03;96744.00;;;19.83;69.21
56894;BME280;43392;50.078;13.704;2023-09-19T08:54:35;96743.19;;;19.59;68.76
56894;BME280;43392;50.078;13.704;2023-09-19T08:57:07;96746.16;;;19.33;69.26
56894;BME280;43392;50.078;13.704;2023-09-19T08:59:37;96749.88;;;19.29;69.51
56894;BME280;43392;50.078;13.704;2023-09-19T09:02:09;96749.78;;;19.25;69.65
56894;BME280;43392;50.078;13.704;2023-09-19T09:04:38;96756.91;;;19.30;70.07
56894;BME280;43392;50.078;13.704;2023-09-19T09:07:06;96748.69;;;19.38;70.62
56894;BME280;43392;50.078;13.704;2023-09-19T09:09:37;96750.31;;;19.63;70.55
56894;BME280;43392;50.078;13.704;2023-09-19T09:12:08;96748.41;;;19.88;69.91
56894;BME280;43392;50.078;13.704;2023-09-19T09:14:35;96747.41;;;20.05;69.36
56894;BME280;43392;50.078;13.704;2023-09-19T09:17:03;96741.16;;;20.16;68.15
56894;BME280;43392;50.078;13.704;2023-09-19T09:19:30;96741.84;;;20.25;67.95
56894;BME280;43392;50.078;13.704;2023-09-19T09:22:06;96741.38;;;20.23;67.89
56894;BME280;43392;50.078;13.704;2023-09-19T09:24:33;96741.81;;;20.37;67.61
56894;BME280;43392;50.078;13.704;2023-09-19T09:27:04;96735.78;;;20.56;67.11
56894;BME280;43392;50.078;13.704;2023-09-19T09:29:44;96738.00;;;20.66;66.23
56894;BME280;43392;50.078;13.704;2023-09-19T09:32:23;96734.84;;;20.64;65.09
56894;BME280;43392;50.078;13.704;2023-09-19T09:34:52;96742.53;;;20.74;64.64
56894;BME280;43392;50.078;13.704;2023-09-19T09:37:19;96742.72;;;20.81;65.79
56894;BME280;43392;50.078;13.704;2023-09-19T09:39:51;96747.06;;;20.82;64.71
56894;BME280;43392;50.078;13.704;2023-09-19T09:42:31;96749.13;;;20.73;65.07
56894;BME280;43392;50.078;13.704;2023-09-19T09:45:23;96753.66;;;20.69;63.82
56894;BME280;43392;50.078;13.704;2023-09-19T09:48:03;96751.38;;;20.71;64.67
56894;BME280;43392;50.078;13.704;2023-09-19T09:50:30;96742.84;;;20.85;63.53
56894;BME280;43392;50.078;13.704;2023-09-19T09:53:21;96754.44;;;20.82;61.88
56894;BME280;43392;50.078;13.704;2023-09-19T09:55:57;96764.28;;;20.86;58.88
56894;BME280;43392;50.078;13.704;2023-09-19T09:58:26;96759.13;;;20.69;59.26
56894;BME280;43392;50.078;13.704;2023-09-19T10:00:56;96761.41;;;20.67;57.86
56894;BME280;43392;50.078;13.704;2023-09-19T10:03:31;96768.66;;;20.75;56.79
56894;BME280;43392;50.078;13.704;2023-09-19T10:05:59;96773.34;;;20.90;57.81
56894;BME280;43392;50.078;13.704;2023-09-19T10:08:27;96770.25;;;21.04;56.97
56894;BME280;43392;50.078;13.704;2023-09-19T10:10:56;96764.59;;;20.97;55.22
56894;BME280;43392;50.078;13.704;2023-09-19T10:13:34;96764.97;;;20.83;55.69
56894;BME280;43392;50.078;13.704;2023-09-19T10:16:06;96772.22;;;20.91;54.80
56894;BME280;43392;50.078;13.704;2023-09-19T10:18:36;96767.16;;;20.78;55.55
56894;BME280;43392;50.078;13.704;2023-09-19T10:21:04;96771.47;;;20.79;54.95
56894;BME280;43392;50.078;13.704;2023-09-19T10:23:33;96779.44;;;20.72;53.87
56894;BME280;43392;50.078;13.704;2023-09-19T10:26:02;96772.53;;;20.62;53.21
56894;BME280;43392;50.078;13.704;2023-09-19T10:28:32;96777.88;;;20.71;53.42
56894;BME280;43392;50.078;13.704;2023-09-19T10:31:01;96782.44;;;20.94;52.27
56894;BME280;43392;50.078;13.704;2023-09-19T10:33:36;96773.56;;;21.09;51.26
56894;BME280;43392;50.078;13.704;2023-09-19T10:36:04;96777.47;;;21.24;52.55
56894;BME280;43392;50.078;13.704;2023-09-19T10:38:33;96783.56;;;21.33;51.69
56894;BME280;43392;50.078;13.704;2023-09-19T10:41:01;96775.03;;;21.35;51.03
56894;BME280;43392;50.078;13.704;2023-09-19T10:43:30;96768.13;;;21.53;50.85
56894;BME280;43392;50.078;13.704;2023-09-19T10:46:01;96777.53;;;21.71;50.79
56894;BME280;43392;50.078;13.704;2023-09-19T10:48:29;96783.34;;;21.69;51.36
56894;BME280;43392;50.078;13.704;2023-09-19T10:51:01;96779.53;;;21.86;51.04
56894;BME280;43392;50.078;13.704;2023-09-19T10:53:41;96785.06;;;21.90;48.44
56894;BME280;43392;50.078;13.704;2023-09-19T10:56:09;96790.31;;;21.82;48.35
56894;BME280;43392;50.078;13.704;2023-09-19T10:58:43;96795.69;;;21.79;47.65
56894;BME280;43392;50.078;13.704;2023-09-19T11:01:12;96795.22;;;21.61;47.76
56894;BME280;43392;50.078;13.704;2023-09-19T11:03:40;96802.03;;;21.24;48.42
56894;BME280;43392;50.078;13.704;2023-09-19T11:06:11;96793.78;;;20.96;48.69
56894;BME280;43392;50.078;13.704;2023-09-19T11:08:55;96807.25;;;20.77;49.53
56894;BME280;43392;50.078;13.704;2023-09-19T11:11:45;96796.13;;;20.70;49.92
56894;BME280;43392;50.078;13.704;2023-09-19T11:14:45;96798.41;;;20.68;49.53
56894;BME280;43392;50.078;13.704;2023-09-19T11:17:32;96787.13;;;20.82;50.13
56894;BME280;43392;50.078;13.704;2023-09-19T11:20:21;96798.84;;;20.82;49.91
56894;BME280;43392;50.078;13.704;2023-09-19T11:25:57;96795.66;;;20.80;50.59
56894;BME280;43392;50.078;13.704;2023-09-19T11:28:36;96793.81;;;20.84;49.83
56894;BME280;43392;50.078;13.704;2023-09-19T11:34:57;96797.50;;;21.16;49.05
56894;BME280;43392;50.078;13.704;2023-09-19T11:38:00;96781.09;;;21.28;48.96
56894;BME280;43392;50.078;13.704;2023-09-19T11:40:36;96777.94;;;21.42;49.12
56894;BME280;43392;50.078;13.704;2023-09-19T11:43:28;96778.41;;;21.59;49.69
56894;BME280;43392;50.078;13.704;2023-09-19T11:46:06;96782.47;;;21.81;48.43
56894;BME280;43392;50.078;13.704;2023-09-19T11:48:32;96779.16;;;22.03;47.96
56894;BME280;43392;50.078;13.704;2023-09-19T11:51:11;96784.38;;;22.08;48.98
56894;BME280;43392;50.078;13.704;2023-09-19T11:53:45;96786.28;;;22.23;49.28
56894;BME280;43392;50.078;13.704;2023-09-19T11:56:14;96785.72;;;22.33;47.85
56894;BME280;43392;50.078;13.704;2023-09-19T11:58:43;96780.53;;;22.28;46.89
56894;BME280;43392;50.078;13.704;2023-09-19T12:01:12;96783.25;;;22.28;48.17
56894;BME280;43392;50.078;13.704;2023-09-19T12:03:46;96771.41;;;22.21;47.64
56894;BME280;43392;50.078;13.704;2023-09-19T12:06:16;96781.25;;;22.25;47.16
56894;BME280;43392;50.078;13.704;2023-09-19T12:08:43;96774.84;;;22.18;45.92
56894;BME280;43392;50.078;13.704;2023-09-19T12:11:13;96761.03;;;22.11;46.75
56894;BME280;43392;50.078;13.704;2023-09-19T12:13:42;96766.47;;;22.11;46.35
56894;BME280;43392;50.078;13.704;2023-09-19T12:16:14;96759.94;;;22.15;46.50
56894;BME280;43392;50.078;13.704;2023-09-19T12:18:42;96770.06;;;22.15;45.99
56894;BME280;43392;50.078;13.704;2023-09-19T12:21:23;96766.13;;;22.12;45.32
56894;BME280;43392;50.078;13.704;2023-09-19T12:24:07;96761.28;;;22.06;44.75
56894;BME280;43392;50.078;13.704;2023-09-19T12:26:42;96759.53;;;21.98;44.63
56894;BME280;43392;50.078;13.704;2023-09-19T12:29:12;96759.72;;;21.89;44.87
56894;BME280;43392;50.078;13.704;2023-09-19T12:31:48;96753.19;;;21.94;44.93
56894;BME280;43392;50.078;13.704;2023-09-19T12:34:16;96750.34;;;21.90;44.98
56894;BME280;43392;50.078;13.704;2023-09-19T12:36:46;96755.38;;;21.88;45.29
56894;BME280;43392;50.078;13.704;2023-09-19T12:39:22;96751.84;;;21.88;44.51
56894;BME280;43392;50.078;13.704;2023-09-19T12:41:51;96756.78;;;21.82;44.86
56894;BME280;43392;50.078;13.704;2023-09-19T12:44:18;96760.84;;;21.88;43.86
56894;BME280;43392;50.078;13.704;2023-09-19T12:46:45;96762.19;;;21.94;43.74
56894;BME280;43392;50.078;13.704;2023-09-19T12:49:15;96754.97;;;22.02;43.66
56894;BME280;43392;50.078;13.704;2023-09-19T12:51:42;96761.00;;;21.95;44.17
56894;BME280;43392;50.078;13.704;2023-09-19T12:54:10;96760.75;;;22.00;45.11
56894;BME280;43392;50.078;13.704;2023-09-19T12:56:41;96762.41;;;22.05;45.22
56894;BME280;43392;50.078;13.704;2023-09-19T12:59:10;96754.31;;;22.08;45.29
56894;BME280;43392;50.078;13.704;2023-09-19T13:01:38;96754.66;;;22.22;44.60
56894;BME280;43392;50.078;13.704;2023-09-19T13:04:11;96766.16;;;22.31;43.83
56894;BME280;43392;50.078;13.704;2023-09-19T13:06:40;96763.53;;;22.19;43.57
56894;BME280;43392;50.078;13.704;2023-09-19T13:09:10;96761.34;;;22.09;44.11
56894;BME280;43392;50.078;13.704;2023-09-19T13:11:38;96755.63;;;22.14;44.36
56894;BME280;43392;50.078;13.704;2023-09-19T13:14:18;96757.00;;;22.24;44.31